Upstream stations:
Downstream station:
SHEF ID: CDNT2 Canadian Rv nr Canadian, TX
STATION TYPE:
Regulating: Stage = 8.00, Flow = 5231
STAGE RIV-FLOW BAT-LOAD
ft cfs volt
Ccp-Rev Ccp-Rev Ccp-Rev
(US/Central)
04/28 00:00 1.15 33 12.41
04/28 01:00 1.21 40 12.41
04/28 02:00 1.23 42 12.33
04/28 03:00 1.25 44 12.33
04/28 04:00 1.30 50 12.33
04/28 05:00 1.29 49 12.33
04/28 06:00 1.32 52 12.25
04/28 07:00 1.29 49 12.25
04/28 08:00 1.31 51 12.25
04/28 09:00 1.32 52 12.25
04/28 10:00 1.33 53 12.33
04/28 11:00 1.34 55 12.57
04/28 12:00 1.36 57 12.73
04/28 13:00 1.35 56 12.97
04/28 14:00 1.36 57 13.13
04/28 15:00 1.37 58 13.21
04/28 16:00 1.36 57 13.13
04/28 17:00 1.35 56 12.89
04/28 18:00 1.35 56 12.65
04/28 19:00 1.33 53 12.49
04/28 20:00 1.33 53 12.49
04/28 21:00 1.31 51 12.41
04/28 22:00 1.30 50 12.41
04/28 23:00 ---- ---- ----